Time;durP1;ratioP1;P1;durP2;ratioP2;P2;SDS_P1;SDS_P2;PMS_P1;PMS_P2;Temp;Humidity;BMP_temperature;BMP_pressure;BME280_temperature;BME280_humidity;BME280_pressure;Samples;Min_cycle;Max_cycle;Signal;HPM_P1;HPM_P2
2022/06/26 00:00:06;;;;;;;1999.90;999.90;;;;;;;19.52;100.00;93860.06;5056228;28;20263;-61
2022/06/26 00:02:31;;;;;;;1999.90;999.90;;;;;;;19.51;100.00;93858.56;5055848;28;20186;-60
2022/06/26 00:04:57;;;;;;;1999.90;999.90;;;;;;;19.50;100.00;93857.03;5055909;28;20284;-62
2022/06/26 00:07:22;;;;;;;1999.90;999.90;;;;;;;19.45;100.00;93824.56;5072597;28;20180;-62
2022/06/26 00:09:48;;;;;;;1999.90;999.90;;;;;;;19.45;100.00;93869.59;5072581;28;20192;-62
2022/06/26 00:12:13;;;;;;;1999.90;999.90;;;;;;;19.42;100.00;93839.41;5072782;28;20219;-62
2022/06/26 00:14:39;;;;;;;1999.90;999.90;;;;;;;19.41;100.00;93837.88;5072220;28;20202;-62
2022/06/26 00:17:04;;;;;;;1999.90;999.90;;;;;;;19.40;100.00;93841.91;5072435;28;20181;-61
2022/06/26 00:19:29;;;;;;;1999.90;999.90;;;;;;;19.39;100.00;93845.94;5072374;28;20189;-60
2022/06/26 00:21:55;;;;;;;1999.90;999.90;;;;;;;19.38;100.00;93830.56;5072378;28;20220;-63
2022/06/26 00:24:20;;;;;;;1999.90;999.90;;;;;;;19.37;100.00;93820.72;5072168;28;20186;-63
2022/06/26 00:26:45;;;;;;;1999.90;999.90;;;;;;;19.36;100.00;93825.53;5072150;28;20242;-63
2022/06/26 00:29:11;;;;;;;1999.90;999.90;;;;;;;19.34;100.00;93810.69;5072524;28;20189;-63
2022/06/26 00:31:36;;;;;;;1999.90;999.90;;;;;;;19.29;100.00;93797.56;5072154;28;20182;-63
2022/06/26 00:34:02;;;;;;;1999.90;999.90;;;;;;;19.23;100.00;93753.22;5072372;28;20214;-63
2022/06/26 00:36:27;;;;;;;1999.90;999.90;;;;;;;19.21;100.00;93735.59;5056442;28;20194;-62
2022/06/26 00:38:53;;;;;;;1999.90;999.90;;;;;;;19.20;100.00;93717.47;5056562;28;20224;-61
2022/06/26 00:41:19;;;;;;;1999.90;999.90;;;;;;;19.15;100.00;93704.38;5071906;28;20285;-63
2022/06/26 00:43:44;;;;;;;1999.90;999.90;;;;;;;19.11;100.00;93692.78;5072026;28;20228;-62
2022/06/26 00:46:09;;;;;;;1999.90;999.90;;;;;;;19.08;100.00;93693.78;5072321;28;20189;-62
2022/06/26 00:48:35;;;;;;;1999.90;999.90;;;;;;;19.03;100.00;93681.47;5072017;28;20196;-63
2022/06/26 00:51:00;;;;;;;1999.90;999.90;;;;;;;19.00;100.00;93678.91;5071694;28;20182;-63
2022/06/26 00:53:26;;;;;;;1999.90;999.90;;;;;;;18.98;100.00;93656.53;5054680;28;20186;-63
2022/06/26 00:55:51;;;;;;;1999.90;999.90;;;;;;;18.97;100.00;93641.16;5071672;28;20185;-63
2022/06/26 00:58:18;;;;;;;1999.90;999.90;;;;;;;18.95;100.00;93607.72;5071181;28;20178;-63
2022/06/26 01:00:43;;;;;;;1999.90;999.90;;;;;;;18.95;100.00;93574.53;5071839;28;20196;-64
2022/06/26 01:03:09;;;;;;;1999.90;999.90;;;;;;;18.93;100.00;93555.66;5054880;28;20182;-63
2022/06/26 01:05:34;;;;;;;1999.90;999.90;;;;;;;18.93;100.00;93527.22;5054466;28;20186;-63
2022/06/26 01:08:00;;;;;;;1999.90;999.90;;;;;;;18.95;100.00;93516.41;5070993;28;20185;-64
2022/06/26 01:10:27;;;;;;;1999.90;999.90;;;;;;;18.94;100.00;93501.09;5071374;28;20259;-63
2022/06/26 01:12:53;;;;;;;1999.90;999.90;;;;;;;18.93;100.00;93483.72;5054569;28;20189;-61
2022/06/26 01:15:19;;;;;;;1999.90;999.90;;;;;;;18.93;100.00;93466.34;5071146;28;20260;-63
2022/06/26 01:17:45;;;;;;;1999.90;999.90;;;;;;;18.94;100.00;93462.34;5054564;28;20197;-61
2022/06/26 01:20:11;;;;;;;1999.90;999.90;;;;;;;18.91;100.00;93452.28;5071792;28;20182;-61
2022/06/26 01:22:36;;;;;;;1999.90;999.90;;;;;;;18.94;100.00;93443.00;5071263;28;20220;-61
2022/06/26 01:25:02;;;;;;;1999.90;999.90;;;;;;;18.94;100.00;93437.44;5071260;28;20196;-60
2022/06/26 01:27:28;;;;;;;1999.90;999.90;;;;;;;18.94;100.00;93421.59;5070970;28;20236;-61
2022/06/26 01:29:54;;;;;;;1999.90;999.90;;;;;;;18.92;100.00;93410.28;5071624;28;20209;-62
2022/06/26 01:32:19;;;;;;;1999.90;999.90;;;;;;;18.97;100.00;93386.63;5071332;28;20190;-63
2022/06/26 01:34:45;;;;;;;1999.90;999.90;;;;;;;18.96;100.00;93365.75;5071185;28;20213;-63
2022/06/26 01:37:10;;;;;;;1999.90;999.90;;;;;;;18.96;100.00;93351.91;5055387;28;20185;-63
2022/06/26 01:39:36;;;;;;;1999.90;999.90;;;;;;;18.97;100.00;93356.19;5071198;28;20201;-62
2022/06/26 01:42:01;;;;;;;1999.90;999.90;;;;;;;19.00;100.00;93372.53;5070973;28;20200;-62
2022/06/26 01:44:27;;;;;;;1999.90;999.90;;;;;;;19.03;100.00;93359.69;5071017;28;20186;-63
2022/06/26 01:46:52;;;;;;;1999.90;999.90;;;;;;;19.03;100.00;93354.16;5071228;28;20189;-62
2022/06/26 01:49:17;;;;;;;1999.90;999.90;;;;;;;19.02;100.00;93358.19;5070920;28;20247;-63
2022/06/26 01:51:43;;;;;;;1999.90;999.90;;;;;;;19.03;100.00;93349.41;5070743;28;20268;-61
2022/06/26 01:54:08;;;;;;;1999.90;999.90;;;;;;;18.99;100.00;93337.06;5070773;28;20236;-62
2022/06/26 01:56:34;;;;;;;1999.90;999.90;;;;;;;18.93;100.00;93333.56;5053592;28;20258;-62
2022/06/26 01:58:59;;;;;;;1999.90;999.90;;;;;;;18.93;100.00;93322.50;5070704;28;20182;-62
2022/06/26 02:01:25;;;;;;;1999.90;999.90;;;;;;;18.93;100.00;93328.78;5070601;28;20197;-62
2022/06/26 02:03:50;;;;;;;1999.90;999.90;;;;;;;18.92;100.00;93321.75;5070667;28;20220;-62
2022/06/26 02:06:15;;;;;;;1999.90;999.90;;;;;;;18.88;100.00;93306.66;5070774;28;20194;-62
2022/06/26 02:08:41;;;;;;;1999.90;999.90;;;;;;;18.90;100.00;93290.31;5070498;28;20196;-61
2022/06/26 02:13:50;;;;;;;1999.90;999.90;;;;;;;18.80;100.00;93270.47;5054980;28;20212;-61
2022/06/26 02:16:20;;;;;;;1999.90;999.90;;;;;;;18.77;100.00;93259.69;5070580;28;20193;-60
2022/06/26 02:18:48;;;;;;;1999.90;999.90;;;;;;;18.74;100.00;93252.41;5070232;28;20201;-60
2022/06/26 02:21:16;;;;;;;1999.90;999.90;;;;;;;18.76;100.00;93247.13;5054033;28;20190;-61
2022/06/26 02:23:42;;;;;;;1999.90;999.90;;;;;;;18.74;100.00;93249.63;5070109;28;20336;-59
2022/06/26 02:26:08;;;;;;;1999.90;999.90;;;;;;;18.76;100.00;93247.13;5070647;28;20223;-61
2022/06/26 02:28:34;;;;;;;1999.90;999.90;;;;;;;18.81;100.00;93249.09;5070359;28;20193;-64
2022/06/26 02:31:00;;;;;;;1999.90;999.90;;;;;;;18.82;100.00;93251.38;5053958;28;20194;-63
2022/06/26 02:33:26;;;;;;;1999.90;999.90;;;;;;;18.86;100.00;93262.16;5070383;28;20216;-64
2022/06/26 02:35:54;;;;;;;1999.90;999.90;;;;;;;18.90;100.00;93284.78;5053485;28;20189;-63
2022/06/26 02:38:21;;;;;;;1999.90;999.90;;;;;;;18.95;100.00;93314.44;5053434;28;20210;-63
2022/06/26 02:40:47;;;;;;;1999.90;999.90;;;;;;;19.00;100.00;93313.66;5053359;28;20177;-63
2022/06/26 02:43:12;;;;;;;1999.90;999.90;;;;;;;18.96;100.00;93293.81;5070583;28;20205;-63
2022/06/26 02:45:38;;;;;;;1999.90;999.90;;;;;;;18.93;100.00;93272.69;5053146;28;20185;-63
2022/06/26 02:48:03;;;;;;;1999.90;999.90;;;;;;;18.78;100.00;93261.19;5069877;28;20185;-61
2022/06/26 02:50:29;;;;;;;1999.90;999.90;;;;;;;18.90;100.00;93276.47;5070447;28;20273;-61
2022/06/26 02:52:54;;;;;;;1999.90;999.90;;;;;;;18.98;100.00;93294.06;5069761;28;20189;-61
2022/06/26 02:55:20;;;;;;;1999.90;999.90;;;;;;;19.01;100.00;93326.22;5069809;28;20208;-60
2022/06/26 02:57:45;;;;;;;1999.90;999.90;;;;;;;19.03;100.00;93343.88;5069853;28;20200;-60
2022/06/26 03:00:13;;;;;;;1999.90;999.90;;;;;;;19.06;100.00;93347.63;5069880;28;20197;-59
2022/06/26 03:02:38;;;;;;;1999.90;999.90;;;;;;;19.12;100.00;93362.94;5069677;28;20190;-60
2022/06/26 03:05:04;;;;;;;1999.90;999.90;;;;;;;19.15;100.00;93383.31;5069990;28;20204;-63
2022/06/26 03:07:30;;;;;;;1999.90;999.90;;;;;;;19.19;100.00;93383.78;5053521;28;20197;-61
2022/06/26 03:09:55;;;;;;;1999.90;999.90;;;;;;;19.21;100.00;93408.97;5070006;28;20194;-62
2022/06/26 03:12:21;;;;;;;1999.90;999.90;;;;;;;19.21;100.00;93429.09;5053995;28;20190;-61
2022/06/26 03:14:46;;;;;;;1999.90;999.90;;;;;;;19.32;100.00;93431.13;5069420;28;20240;-61
2022/06/26 03:17:11;;;;;;;1999.90;999.90;;;;;;;19.35;100.00;93455.75;5069571;28;20253;-61
2022/06/26 03:19:37;;;;;;;1999.90;999.90;;;;;;;19.37;100.00;93463.56;5069485;28;20186;-61
2022/06/26 03:22:03;;;;;;;1999.90;999.90;;;;;;;19.43;100.00;93458.78;5069417;28;20245;-60
2022/06/26 03:24:28;;;;;;;1999.90;999.90;;;;;;;19.46;100.00;93455.72;5069383;28;20244;-61
2022/06/26 03:26:54;;;;;;;1999.90;999.90;;;;;;;19.45;100.00;93445.19;5069344;28;20213;-61
2022/06/26 03:29:19;;;;;;;1999.90;999.90;;;;;;;19.46;100.00;93455.00;5069459;28;20302;-61
2022/06/26 03:31:44;;;;;;;1999.90;999.90;;;;;;;19.53;100.00;93473.88;5069517;28;20182;-61
2022/06/26 03:34:10;;;;;;;1999.90;999.90;;;;;;;19.58;100.00;93475.84;5069781;28;20218;-61
2022/06/26 03:36:35;;;;;;;1999.90;999.90;;;;;;;19.73;100.00;93497.72;5052293;28;20186;-61
2022/06/26 03:39:02;;;;;;;1999.90;999.90;;;;;;;19.87;100.00;93519.59;5068989;28;20202;-61
2022/06/26 03:41:27;;;;;;;1999.90;999.90;;;;;;;19.90;100.00;93543.53;5052572;28;20196;-61
2022/06/26 03:43:53;;;;;;;1999.90;999.90;;;;;;;19.85;100.00;93577.53;5069796;28;20193;-60
2022/06/26 03:46:19;;;;;;;1999.90;999.90;;;;;;;19.77;100.00;93611.81;5052392;28;20213;-60
2022/06/26 03:48:45;;;;;;;1999.90;999.90;;;;;;;19.67;100.00;93616.88;5068770;28;20185;-60
2022/06/26 03:51:10;;;;;;;1999.90;999.90;;;;;;;19.63;100.00;93615.59;5052844;28;20243;-60
2022/06/26 03:53:36;;;;;;;1999.90;999.90;;;;;;;19.62;100.00;93591.94;5069124;28;20197;-61
2022/06/26 03:56:02;;;;;;;1999.90;999.90;;;;;;;19.52;100.00;93594.94;5052780;28;20186;-61
2022/06/26 03:58:28;;;;;;;1999.90;999.90;;;;;;;19.48;100.00;93570.78;5052272;28;20194;-63
2022/06/26 04:00:54;;;;;;;1999.90;999.90;;;;;;;19.41;100.00;93560.97;5052346;28;20181;-62
2022/06/26 04:03:20;;;;;;;1999.90;999.90;;;;;;;19.38;100.00;93548.16;5051996;28;20186;-62
2022/06/26 04:05:46;;;;;;;1999.90;999.90;;;;;;;19.35;100.00;93546.38;5052308;28;20197;-61
2022/06/26 04:08:12;;;;;;;1999.90;999.90;;;;;;;19.47;100.00;93531.25;5068968;28;20178;-62
2022/06/26 04:10:38;;;;;;;1999.90;999.90;;;;;;;19.55;100.00;93554.41;5069348;28;20184;-62
2022/06/26 04:13:05;;;;;;;1999.90;999.90;;;;;;;19.59;100.00;93565.97;5052526;28;20239;-62
2022/06/26 04:15:32;;;;;;;1999.90;999.90;;;;;;;19.62;100.00;93581.59;5052431;28;20297;-62
2022/06/26 04:17:58;;;;;;;1999.90;999.90;;;;;;;20.08;100.00;93561.59;5068976;28;20185;-60
2022/06/26 04:20:24;;;;;;;1999.90;999.90;;;;;;;20.79;100.00;93629.94;5052434;28;20288;-63
2022/06/26 04:23:05;;;;;;;1999.90;999.90;;;;;;;21.54;100.00;93774.47;5051993;28;20194;-63
2022/06/26 04:25:31;;;;;;;1999.90;999.90;;;;;;;22.30;100.00;93942.16;5052106;28;20185;-63
2022/06/26 04:27:58;;;;;;;1999.90;999.90;;;;;;;22.32;100.00;94097.44;5051844;28;20189;-63
2022/06/26 04:30:24;;;;;;;1999.90;999.90;;;;;;;22.29;100.00;94146.53;5051993;28;20280;-63
2022/06/26 04:32:50;;;;;;;1999.90;999.90;;;;;;;22.16;100.00;94209.53;5068286;28;20217;-63
2022/06/26 04:35:15;;;;;;;1999.90;999.90;;;;;;;21.94;100.00;94210.31;5071075;28;20209;-63
2022/06/26 04:37:41;;;;;;;1999.90;999.90;;;;;;;22.31;100.00;94215.59;5072193;28;20190;-61
2022/06/26 04:40:08;;;;;;;1999.90;999.90;;;;;;;23.07;100.00;94280.00;5071965;28;20205;-63
2022/06/26 04:42:34;;;;;;;1999.90;999.90;;;;;;;23.56;100.00;94398.97;5055170;28;20196;-65
2022/06/26 04:44:59;;;;;;;1999.90;999.90;;;;;;;23.62;100.00;94483.34;5072209;28;20221;-64
2022/06/26 04:47:25;;;;;;;1999.90;999.90;;;;;;;23.38;100.00;94524.97;5071872;28;20248;-64
2022/06/26 04:49:50;;;;;;;1999.90;999.90;;;;;;;23.29;100.00;94525.19;5071611;28;20185;-64
2022/06/26 04:52:16;;;;;;;1999.90;999.90;;;;;;;23.12;100.00;94516.06;5071883;28;20193;-64
2022/06/26 04:54:42;;;;;;;1999.90;999.90;;;;;;;22.94;100.00;94506.16;5071558;28;20209;-63
2022/06/26 04:57:07;;;;;;;1999.90;999.90;;;;;;;22.85;100.00;94491.72;5055139;28;20225;-61
2022/06/26 04:59:33;;;;;;;1999.90;999.90;;;;;;;22.91;100.00;94493.22;5071949;28;20271;-61
2022/06/26 05:01:58;;;;;;;1999.90;999.90;;;;;;;22.96;100.00;94516.78;5071565;28;20193;-62
2022/06/26 05:04:23;;;;;;;1999.90;999.90;;;;;;;22.98;100.00;94525.41;5071282;28;20206;-61
2022/06/26 05:06:49;;;;;;;1999.90;999.90;;;;;;;23.05;100.00;94533.28;5071567;28;20201;-61
2022/06/26 05:09:14;;;;;;;1999.90;999.90;;;;;;;23.56;100.00;94561.44;5071413;28;20190;-60
2022/06/26 05:11:41;;;;;;;1999.90;999.90;;;;;;;24.04;100.00;94608.59;5071661;28;20181;-61
2022/06/26 05:14:07;;;;;;;1999.90;999.90;;;;;;;24.63;100.00;94696.31;5071395;28;20229;-61
2022/06/26 05:16:33;;;;;;;1999.90;999.90;;;;;;;24.96;100.00;94790.47;5054781;28;20252;-62
2022/06/26 05:18:58;;;;;;;1999.90;999.90;;;;;;;25.02;100.00;94833.16;5071592;28;20182;-62
2022/06/26 05:21:24;;;;;;;1999.90;999.90;;;;;;;25.06;100.00;94856.75;5054908;28;20182;-62
2022/06/26 05:23:50;;;;;;;1999.90;999.90;;;;;;;25.13;100.00;94867.41;5071131;28;20277;-63
2022/06/26 05:26:15;;;;;;;1999.90;999.90;;;;;;;25.23;100.00;94876.28;5071500;28;20178;-63
2022/06/26 05:28:41;;;;;;;1999.90;999.90;;;;;;;25.42;100.00;94894.84;5054771;28;20182;-62
2022/06/26 05:31:06;;;;;;;1999.90;999.90;;;;;;;25.27;100.00;94927.91;5071327;28;20193;-61
2022/06/26 05:33:31;;;;;;;1999.90;999.90;;;;;;;25.07;100.00;94924.63;5071268;28;20197;-62
2022/06/26 05:35:57;;;;;;;1999.90;999.90;;;;;;;24.98;100.00;94922.06;5070760;28;20174;-62
2022/06/26 05:38:22;;;;;;;1999.90;999.90;;;;;;;24.58;100.00;94919.75;5070924;28;20217;-62
2022/06/26 05:40:47;;;;;;;1999.90;999.90;;;;;;;25.92;100.00;94942.28;5070626;28;20277;-62
2022/06/26 05:43:13;;;;;;;1999.90;999.90;;;;;;;26.93;100.00;95006.53;5071032;28;20208;-63
2022/06/26 05:45:38;;;;;;;1999.90;999.90;;;;;;;27.63;100.00;95087.16;5070725;28;20200;-63
2022/06/26 05:48:04;;;;;;;1999.90;999.90;;;;;;;28.28;100.00;95105.50;5071116;28;20221;-62
2022/06/26 05:50:29;;;;;;;1999.90;999.90;;;;;;;29.04;100.00;95093.94;5071193;28;20193;-63
2022/06/26 05:52:55;;;;;;;1999.90;999.90;;;;;;;29.82;90.79;95118.94;5070885;28;20250;-63
2022/06/26 05:55:21;;;;;;;1999.90;999.90;;;;;;;30.11;86.79;95140.47;5054280;28;20259;-63
2022/06/26 05:57:46;;;;;;;1999.90;999.90;;;;;;;30.26;84.33;95147.16;5070792;28;20276;-63
2022/06/26 06:00:12;;;;;;;1999.90;999.90;;;;;;;30.90;78.41;95181.66;5070780;28;20193;-62
2022/06/26 06:02:37;;;;;;;1999.90;999.90;;;;;;;30.98;76.63;95177.66;5070799;28;20200;-64
2022/06/26 06:05:03;;;;;;;1999.90;999.90;;;;;;;31.81;72.60;95195.72;5070743;28;20193;-62
2022/06/26 06:07:29;;;;;;;1999.90;999.90;;;;;;;32.40;67.38;95200.50;5070732;28;20174;-63
2022/06/26 06:09:54;;;;;;;1999.90;999.90;;;;;;;32.21;69.44;95199.16;5070656;28;20185;-63
2022/06/26 06:12:19;;;;;;;1999.90;999.90;;;;;;;33.15;63.63;95206.81;5071176;28;20192;-59
2022/06/26 06:14:45;;;;;;;1999.90;999.90;;;;;;;32.89;61.17;95209.81;5054766;28;20205;-59
2022/06/26 06:19:55;;;;;;;1999.90;999.90;;;;;;;31.12;68.70;95209.44;5055278;28;20278;-61
2022/06/26 06:22:20;;;;;;;1999.90;999.90;;;;;;;29.69;76.11;95200.53;5070497;28;20186;-60
2022/06/26 06:24:46;;;;;;;1999.90;999.90;;;;;;;30.42;75.40;95210.19;5070761;28;20193;-60
2022/06/26 06:27:11;;;;;;;1999.90;999.90;;;;;;;31.39;70.70;95216.63;5070406;28;20272;-64
2022/06/26 06:29:36;;;;;;;1999.90;999.90;;;;;;;31.98;65.04;95227.19;5070350;28;20221;-64
2022/06/26 06:32:02;;;;;;;1999.90;999.90;;;;;;;32.86;61.45;95230.75;5070157;28;20186;-63
2022/06/26 06:34:27;;;;;;;1999.90;999.90;;;;;;;32.78;58.37;95235.53;5069933;28;20210;-63
2022/06/26 06:36:53;;;;;;;1999.90;999.90;;;;;;;33.95;56.43;95241.63;5071171;28;20188;-63
2022/06/26 06:39:20;;;;;;;1999.90;999.90;;;;;;;34.37;54.05;95237.25;5070056;28;20213;-63
2022/06/26 06:41:45;;;;;;;1999.90;999.90;;;;;;;34.69;52.39;95237.47;5070463;28;20185;-64
2022/06/26 06:44:11;;;;;;;1999.90;999.90;;;;;;;34.96;51.25;95239.41;5070422;28;20192;-61
2022/06/26 06:46:36;;;;;;;1999.90;999.90;;;;;;;35.36;48.58;95239.59;5070566;28;20193;-62
2022/06/26 06:49:01;;;;;;;1999.90;999.90;;;;;;;35.77;48.17;95241.97;5070252;28;20181;-61
2022/06/26 06:51:27;;;;;;;1999.90;999.90;;;;;;;35.77;46.60;95244.81;5069827;28;20190;-61
2022/06/26 06:53:52;;;;;;;1999.90;999.90;;;;;;;36.29;47.11;95243.84;5053999;28;20224;-62
2022/06/26 06:56:17;;;;;;;1999.90;999.90;;;;;;;37.03;43.01;95247.53;5069170;28;20193;-61
2022/06/26 06:58:43;;;;;;;1999.90;999.90;;;;;;;36.97;42.27;95241.34;5069541;28;20231;-62
2022/06/26 07:01:08;;;;;;;1999.90;999.90;;;;;;;36.97;42.51;95243.41;5069588;28;20186;-61
2022/06/26 07:03:33;;;;;;;1999.90;999.90;;;;;;;36.12;44.46;95238.03;5069325;28;20189;-61
2022/06/26 07:05:59;;;;;;;1999.90;999.90;;;;;;;34.96;47.64;95235.81;5069638;28;20315;-61
2022/06/26 07:08:24;;;;;;;1999.90;999.90;;;;;;;35.01;47.33;95234.84;5053005;28;20182;-63
2022/06/26 07:10:49;;;;;;;1999.90;999.90;;;;;;;35.58;46.60;95238.78;5052553;28;20185;-63
2022/06/26 07:13:15;;;;;;;1999.90;999.90;;;;;;;36.05;44.31;95236.00;5069486;28;20239;-60
2022/06/26 07:15:40;;;;;;;1999.90;999.90;;;;;;;35.75;45.64;95230.38;5069062;28;20198;-63
2022/06/26 07:18:05;;;;;;;1999.90;999.90;;;;;;;36.23;45.13;95229.06;5069658;28;20192;-59
2022/06/26 07:20:31;;;;;;;1999.90;999.90;;;;;;;36.59;43.12;95226.56;5069414;28;20278;-60
2022/06/26 07:22:56;;;;;;;1999.90;999.90;;;;;;;35.96;43.36;95228.06;5069247;28;20193;-63
2022/06/26 07:25:22;;;;;;;1999.90;999.90;;;;;;;36.44;42.05;95229.53;5069646;28;20287;-57
2022/06/26 07:27:48;;;;;;;1999.90;999.90;;;;;;;36.83;40.63;95223.03;5069515;28;20193;-59
2022/06/26 07:30:13;;;;;;;1999.90;999.90;;;;;;;37.33;39.60;95224.50;5069336;28;20193;-60
2022/06/26 07:32:39;;;;;;;1999.90;999.90;;;;;;;37.65;38.11;95221.50;5069212;28;20190;-61
2022/06/26 07:35:04;;;;;;;1999.90;999.90;;;;;;;37.78;38.24;95229.75;5069252;28;20209;-59
2022/06/26 07:37:30;;;;;;;1999.90;999.90;;;;;;;36.33;40.85;95229.97;5069841;28;20189;-60
2022/06/26 07:39:55;;;;;;;1999.90;999.90;;;;;;;36.46;41.05;95229.72;5069346;28;20205;-60
2022/06/26 07:42:21;;;;;;;1999.90;999.90;;;;;;;37.42;40.07;95229.53;5052583;28;20276;-66
2022/06/26 07:44:46;;;;;;;1999.90;999.90;;;;;;;37.86;38.29;95219.00;5069315;28;20192;-67
2022/06/26 07:47:12;;;;;;;1999.90;999.90;;;;;;;38.18;37.43;95221.66;5069147;28;20181;-67
2022/06/26 07:49:37;;;;;;;1999.90;999.90;;;;;;;38.64;36.67;95221.81;5068999;28;20185;-67
2022/06/26 07:52:03;;;;;;;1999.90;999.90;;;;;;;39.10;35.83;95220.50;5069145;28;20178;-68
2022/06/26 07:54:28;;;;;;;1999.90;999.90;;;;;;;38.33;36.82;95220.69;5068990;28;20205;-66
2022/06/26 07:56:54;;;;;;;1999.90;999.90;;;;;;;36.84;38.56;95224.53;5069684;28;20181;-67
2022/06/26 07:59:19;;;;;;;1999.90;999.90;;;;;;;37.31;38.45;95220.72;5069489;28;20282;-65
2022/06/26 08:01:45;;;;;;;1999.90;999.90;;;;;;;35.75;41.11;95219.00;5069175;28;20189;-61
2022/06/26 08:04:10;;;;;;;1999.90;999.90;;;;;;;36.43;41.47;95211.72;5069201;28;20196;-61
2022/06/26 08:06:36;;;;;;;1999.90;999.90;;;;;;;37.05;39.46;95210.66;5069015;28;20200;-61
2022/06/26 08:09:01;;;;;;;1999.90;999.90;;;;;;;37.17;39.94;95206.03;5070212;28;20232;-62
2022/06/26 08:11:27;;;;;;;1999.90;999.90;;;;;;;38.00;36.88;95207.97;5072526;28;20189;-61
2022/06/26 08:13:53;;;;;;;1999.90;999.90;;;;;;;37.22;39.20;95198.56;5072803;28;20221;-61
2022/06/26 08:16:19;;;;;;;1999.90;999.90;;;;;;;38.23;36.69;95209.22;5072408;28;20243;-63
2022/06/26 08:18:45;;;;;;;1999.90;999.90;;;;;;;36.89;40.28;95197.91;5055757;28;20182;-61
2022/06/26 08:23:55;;;;;;;1999.90;999.90;;;;;;;36.32;39.36;95200.78;5057039;28;20224;-60
2022/06/26 08:26:21;;;;;;;1999.90;999.90;;;;;;;36.46;40.33;95201.25;5072464;28;20184;-60
2022/06/26 08:28:47;;;;;;;1999.90;999.90;;;;;;;36.61;39.18;95195.44;5055522;28;20410;-61
2022/06/26 08:31:12;;;;;;;1999.90;999.90;;;;;;;36.95;39.24;95201.25;5072253;28;20182;-60
2022/06/26 08:33:38;;;;;;;1999.90;999.90;;;;;;;36.16;41.56;95190.03;5071940;28;20181;-60
2022/06/26 08:36:04;;;;;;;1999.90;999.90;;;;;;;35.78;40.82;95184.53;5072015;28;20174;-64
2022/06/26 08:38:30;;;;;;;1999.90;999.90;;;;;;;36.17;41.59;95192.28;5072018;28;20210;-60
2022/06/26 08:40:59;;;;;;;1999.90;999.90;;;;;;;37.23;39.35;95191.53;5054937;28;20182;-59
2022/06/26 08:43:25;;;;;;;1999.90;999.90;;;;;;;35.98;41.09;95185.56;5071598;28;20192;-59
2022/06/26 08:45:53;;;;;;;1999.90;999.90;;;;;;;35.54;41.95;95192.94;5055040;28;20178;-59
2022/06/26 08:48:21;;;;;;;1999.90;999.90;;;;;;;35.34;42.73;95186.16;5055286;28;20213;-59
2022/06/26 08:50:46;;;;;;;1999.90;999.90;;;;;;;35.39;43.00;95175.94;5071572;28;20180;-59
2022/06/26 08:53:14;;;;;;;1999.90;999.90;;;;;;;35.39;42.89;95182.34;5071992;28;20182;-59
2022/06/26 08:55:40;;;;;;;1999.90;999.90;;;;;;;35.59;44.67;95183.44;5054769;28;20210;-63
2022/06/26 08:58:06;;;;;;;1999.90;999.90;;;;;;;34.90;46.29;95175.59;5071563;28;20258;-62
2022/06/26 09:00:31;;;;;;;1999.90;999.90;;;;;;;36.79;42.57;95188.50;5054645;28;20182;-62
2022/06/26 09:02:57;;;;;;;1999.90;999.90;;;;;;;35.29;43.49;95194.88;5071588;28;20196;-62
2022/06/26 09:05:22;;;;;;;1999.90;999.90;;;;;;;35.82;42.83;95186.97;5070958;28;20265;-63
2022/06/26 09:07:52;;;;;;;1999.90;999.90;;;;;;;35.60;43.44;95185.69;5071155;28;20222;-59
2022/06/26 09:10:17;;;;;;;1999.90;999.90;;;;;;;34.10;47.56;95180.03;5054361;28;20224;-60
2022/06/26 09:12:49;;;;;;;1999.90;999.90;;;;;;;34.73;47.54;95178.25;5071835;28;20190;-60
2022/06/26 09:15:17;;;;;;;1999.90;999.90;;;;;;;35.55;45.87;95189.53;5054706;28;20212;-63
2022/06/26 09:17:56;;;;;;;1999.90;999.90;;;;;;;34.88;45.12;95179.00;5054912;28;20235;-64
2022/06/26 09:20:22;;;;;;;1999.90;999.90;;;;;;;34.69;46.21;95186.38;5071320;28;20181;-63
2022/06/26 09:22:52;;;;;;;1999.90;999.90;;;;;;;35.28;45.93;95182.00;5070949;28;20193;-60
2022/06/26 09:25:18;;;;;;;1999.90;999.90;;;;;;;34.00;49.56;95181.16;5071209;28;20278;-63
2022/06/26 09:27:44;;;;;;;1999.90;999.90;;;;;;;34.89;46.58;95185.47;5070801;28;20190;-63
2022/06/26 09:30:09;;;;;;;1999.90;999.90;;;;;;;34.90;46.76;95181.28;5071029;28;20186;-59
2022/06/26 09:32:35;;;;;;;1999.90;999.90;;;;;;;34.42;46.12;95182.38;5071831;28;20199;-66
2022/06/26 09:35:00;;;;;;;1999.90;999.90;;;;;;;35.08;45.39;95180.13;5070737;28;20302;-66
2022/06/26 09:37:34;;;;;;;1999.90;999.90;;;;;;;34.00;47.93;95186.84;5070967;28;20181;-65
2022/06/26 09:40:00;;;;;;;1999.90;999.90;;;;;;;35.10;46.35;95183.16;5054173;28;20208;-66
2022/06/26 09:42:27;;;;;;;1999.90;999.90;;;;;;;35.79;45.09;95168.19;5071099;28;20178;-68
2022/06/26 09:44:54;;;;;;;1999.90;999.90;;;;;;;34.72;44.38;95173.88;5070922;28;20235;-66
2022/06/26 09:47:25;;;;;;;1999.90;999.90;;;;;;;33.48;49.39;95177.56;5070884;28;20224;-59
2022/06/26 09:49:53;;;;;;;1999.90;999.90;;;;;;;34.70;47.01;95168.03;5055394;28;20182;-69
2022/06/26 09:52:23;;;;;;;1999.90;999.90;;;;;;;33.95;48.17;95176.41;5054347;28;20181;-66
2022/06/26 09:54:49;;;;;;;1999.90;999.90;;;;;;;33.32;52.84;95169.50;5054654;28;20284;-66
2022/06/26 09:57:15;;;;;;;1999.90;999.90;;;;;;;34.66;49.13;95170.50;5054655;28;20217;-66
2022/06/26 09:59:41;;;;;;;1999.90;999.90;;;;;;;34.32;49.04;95167.22;5070628;28;20192;-67
2022/06/26 10:07:52;;;;;;;1999.90;999.90;;;;;;;34.67;47.90;95163.47;5055526;28;20197;-69
2022/06/26 10:10:20;;;;;;;1999.90;999.90;;;;;;;34.95;47.89;95154.78;5054170;28;20197;-69
2022/06/26 10:12:49;;;;;;;1999.90;999.90;;;;;;;34.15;50.49;95159.25;5053867;28;20193;-70
2022/06/26 10:15:18;;;;;;;1999.90;999.90;;;;;;;35.42;46.36;95149.19;5070095;28;20229;-68
2022/06/26 10:18:25;;;;;;;1999.90;999.90;;;;;;;35.26;45.20;95150.53;5070975;28;20186;-69
2022/06/26 10:20:54;;;;;;;1999.90;999.90;;;;;;;35.26;46.14;95144.84;5034822;28;20205;-69
2022/06/26 10:23:33;;;;;;;1999.90;999.90;;;;;;;35.97;44.26;95149.91;5070209;28;20178;-69
2022/06/26 10:26:10;;;;;;;1999.90;999.90;;;;;;;36.43;41.14;95148.31;5070346;28;20196;-64
2022/06/26 10:28:35;;;;;;;1999.90;999.90;;;;;;;34.88;45.93;95144.94;5053741;28;20166;-58
2022/06/26 10:31:07;;;;;;;1999.90;999.90;;;;;;;33.80;50.19;95154.41;5069421;28;20188;-59
2022/06/26 10:33:32;;;;;;;1999.90;999.90;;;;;;;34.94;47.30;95142.66;5070585;28;20253;-60
2022/06/26 10:35:57;;;;;;;1999.90;999.90;;;;;;;35.18;45.43;95149.81;5070012;28;20206;-60
2022/06/26 10:38:25;;;;;;;1999.90;999.90;;;;;;;35.96;45.35;95148.41;5053046;28;20289;-60
2022/06/26 10:44:01;;;;;;;1999.90;999.90;;;;;;;34.44;48.46;95140.78;5054644;28;20211;-60
2022/06/26 10:46:47;;;;;;;1999.90;999.90;;;;;;;33.66;52.86;95145.31;5053405;28;20190;-60
2022/06/26 10:49:13;;;;;;;1999.90;999.90;;;;;;;33.81;53.03;95142.53;5054232;28;20181;-61
2022/06/26 10:51:41;;;;;;;1999.90;999.90;;;;;;;34.07;51.80;95135.03;5069759;28;20259;-61
2022/06/26 10:54:21;;;;;;;1999.90;999.90;;;;;;;33.76;53.38;95157.59;5053253;28;20241;-61
2022/06/26 10:56:49;;;;;;;1999.90;999.90;;;;;;;33.89;54.56;95133.31;5053066;28;20178;-61
2022/06/26 10:59:17;;;;;;;1999.90;999.90;;;;;;;33.59;56.22;95128.28;5069756;28;20185;-61
2022/06/26 11:01:43;;;;;;;1999.90;999.90;;;;;;;33.05;58.14;95135.00;5053138;28;20178;-67